sensor_id;sensor_type;location;lat;lon;timestamp;P1;durP1;ratioP1;P2;durP2;ratioP2
2406;SDS011;37709;53.480;9.688;2022-09-25T00:01:17;262.63;;;62.57;;
2406;SDS011;37709;53.480;9.688;2022-09-25T00:03:45;222.80;;;55.00;;
2406;SDS011;37709;53.480;9.688;2022-09-25T00:06:14;252.00;;;56.70;;
2406;SDS011;37709;53.480;9.688;2022-09-25T00:08:47;137.07;;;49.37;;
2406;SDS011;37709;53.480;9.688;2022-09-25T00:11:19;148.43;;;47.20;;
2406;SDS011;37709;53.480;9.688;2022-09-25T00:13:48;136.73;;;43.87;;
2406;SDS011;37709;53.480;9.688;2022-09-25T00:16:17;155.03;;;44.83;;
2406;SDS011;37709;53.480;9.688;2022-09-25T00:18:49;118.30;;;44.13;;
2406;SDS011;37709;53.480;9.688;2022-09-25T00:21:35;137.30;;;48.20;;
2406;SDS011;37709;53.480;9.688;2022-09-25T00:24:04;130.33;;;46.80;;
2406;SDS011;37709;53.480;9.688;2022-09-25T00:26:34;246.50;;;54.70;;
2406;SDS011;37709;53.480;9.688;2022-09-25T00:29:05;144.07;;;45.80;;
2406;SDS011;37709;53.480;9.688;2022-09-25T00:31:33;214.50;;;52.00;;
2406;SDS011;37709;53.480;9.688;2022-09-25T00:34:02;254.30;;;51.20;;
2406;SDS011;37709;53.480;9.688;2022-09-25T00:36:31;200.00;;;54.00;;
2406;SDS011;37709;53.480;9.688;2022-09-25T00:38:58;241.43;;;55.10;;
2406;SDS011;37709;53.480;9.688;2022-09-25T00:41:26;192.97;;;50.17;;
2406;SDS011;37709;53.480;9.688;2022-09-25T00:43:58;189.40;;;51.50;;
2406;SDS011;37709;53.480;9.688;2022-09-25T00:46:37;175.67;;;50.23;;
2406;SDS011;37709;53.480;9.688;2022-09-25T00:49:19;155.20;;;49.30;;
2406;SDS011;37709;53.480;9.688;2022-09-25T00:54:30;136.60;;;47.20;;
2406;SDS011;37709;53.480;9.688;2022-09-25T00:57:03;176.47;;;47.77;;
2406;SDS011;37709;53.480;9.688;2022-09-25T00:59:38;108.53;;;40.00;;
2406;SDS011;37709;53.480;9.688;2022-09-25T01:02:08;113.17;;;43.30;;
2406;SDS011;37709;53.480;9.688;2022-09-25T01:04:40;170.07;;;47.60;;
2406;SDS011;37709;53.480;9.688;2022-09-25T01:07:12;159.90;;;48.70;;
2406;SDS011;37709;53.480;9.688;2022-09-25T01:09:42;214.27;;;50.33;;
2406;SDS011;37709;53.480;9.688;2022-09-25T01:12:10;170.83;;;49.67;;
2406;SDS011;37709;53.480;9.688;2022-09-25T01:14:38;187.10;;;49.47;;
2406;SDS011;37709;53.480;9.688;2022-09-25T01:17:14;139.57;;;43.80;;
2406;SDS011;37709;53.480;9.688;2022-09-25T01:20:13;188.60;;;51.30;;
2406;SDS011;37709;53.480;9.688;2022-09-25T01:31:33;244.87;;;52.40;;
2406;SDS011;37709;53.480;9.688;2022-09-25T01:34:13;167.50;;;48.47;;
2406;SDS011;37709;53.480;9.688;2022-09-25T01:40:01;131.67;;;45.97;;
2406;SDS011;37709;53.480;9.688;2022-09-25T01:42:39;186.80;;;55.30;;
2406;SDS011;37709;53.480;9.688;2022-09-25T01:45:30;174.20;;;52.17;;
2406;SDS011;37709;53.480;9.688;2022-09-25T01:48:05;191.60;;;53.33;;
2406;SDS011;37709;53.480;9.688;2022-09-25T01:50:46;188.50;;;53.33;;
2406;SDS011;37709;53.480;9.688;2022-09-25T01:53:19;181.77;;;54.30;;
2406;SDS011;37709;53.480;9.688;2022-09-25T01:55:53;217.80;;;56.27;;
2406;SDS011;37709;53.480;9.688;2022-09-25T01:58:28;240.47;;;55.87;;
2406;SDS011;37709;53.480;9.688;2022-09-25T02:01:00;204.57;;;53.70;;
2406;SDS011;37709;53.480;9.688;2022-09-25T02:03:37;224.17;;;51.70;;
2406;SDS011;37709;53.480;9.688;2022-09-25T02:06:11;265.67;;;57.40;;
2406;SDS011;37709;53.480;9.688;2022-09-25T02:08:44;186.70;;;53.97;;
2406;SDS011;37709;53.480;9.688;2022-09-25T02:11:28;128.17;;;47.60;;
2406;SDS011;37709;53.480;9.688;2022-09-25T02:14:01;232.37;;;56.10;;
2406;SDS011;37709;53.480;9.688;2022-09-25T02:16:35;215.53;;;56.07;;
2406;SDS011;37709;53.480;9.688;2022-09-25T02:19:04;177.13;;;54.67;;
2406;SDS011;37709;53.480;9.688;2022-09-25T02:22:05;183.20;;;52.67;;
2406;SDS011;37709;53.480;9.688;2022-09-25T02:27:25;125.97;;;45.13;;
2406;SDS011;37709;53.480;9.688;2022-09-25T02:29:55;167.03;;;48.30;;
2406;SDS011;37709;53.480;9.688;2022-09-25T02:32:25;157.30;;;49.47;;
2406;SDS011;37709;53.480;9.688;2022-09-25T02:34:56;103.03;;;39.77;;
2406;SDS011;37709;53.480;9.688;2022-09-25T02:37:25;151.67;;;46.40;;
2406;SDS011;37709;53.480;9.688;2022-09-25T02:39:55;91.33;;;40.67;;
2406;SDS011;37709;53.480;9.688;2022-09-25T02:48:01;143.17;;;46.93;;
2406;SDS011;37709;53.480;9.688;2022-09-25T02:53:49;133.57;;;42.90;;
2406;SDS011;37709;53.480;9.688;2022-09-25T02:56:31;92.50;;;38.67;;
2406;SDS011;37709;53.480;9.688;2022-09-25T02:59:06;152.87;;;46.50;;
2406;SDS011;37709;53.480;9.688;2022-09-25T03:01:37;154.93;;;47.93;;
2406;SDS011;37709;53.480;9.688;2022-09-25T03:04:07;161.90;;;49.50;;
2406;SDS011;37709;53.480;9.688;2022-09-25T03:06:36;161.00;;;50.03;;
2406;SDS011;37709;53.480;9.688;2022-09-25T03:09:05;160.27;;;51.20;;
2406;SDS011;37709;53.480;9.688;2022-09-25T03:11:36;179.33;;;50.30;;
2406;SDS011;37709;53.480;9.688;2022-09-25T03:14:08;177.93;;;53.77;;
2406;SDS011;37709;53.480;9.688;2022-09-25T03:16:46;167.17;;;51.00;;
2406;SDS011;37709;53.480;9.688;2022-09-25T03:19:17;174.20;;;50.07;;
2406;SDS011;37709;53.480;9.688;2022-09-25T03:21:45;206.87;;;56.03;;
2406;SDS011;37709;53.480;9.688;2022-09-25T03:24:14;215.97;;;56.37;;
2406;SDS011;37709;53.480;9.688;2022-09-25T03:26:42;164.10;;;51.87;;
2406;SDS011;37709;53.480;9.688;2022-09-25T03:29:10;148.30;;;46.90;;
2406;SDS011;37709;53.480;9.688;2022-09-25T03:31:39;114.00;;;40.77;;
2406;SDS011;37709;53.480;9.688;2022-09-25T03:34:08;93.47;;;34.70;;
2406;SDS011;37709;53.480;9.688;2022-09-25T03:36:38;57.17;;;24.77;;
2406;SDS011;37709;53.480;9.688;2022-09-25T03:39:05;65.37;;;24.87;;
2406;SDS011;37709;53.480;9.688;2022-09-25T03:41:34;51.17;;;22.00;;
2406;SDS011;37709;53.480;9.688;2022-09-25T03:44:01;65.87;;;23.43;;
2406;SDS011;37709;53.480;9.688;2022-09-25T03:46:30;37.77;;;17.70;;
2406;SDS011;37709;53.480;9.688;2022-09-25T03:49:01;49.73;;;19.80;;
2406;SDS011;37709;53.480;9.688;2022-09-25T03:51:30;38.40;;;17.10;;
2406;SDS011;37709;53.480;9.688;2022-09-25T03:53:58;34.73;;;16.57;;
2406;SDS011;37709;53.480;9.688;2022-09-25T03:56:26;33.97;;;16.30;;
2406;SDS011;37709;53.480;9.688;2022-09-25T03:58:55;31.50;;;14.07;;
2406;SDS011;37709;53.480;9.688;2022-09-25T04:01:24;29.57;;;12.60;;
2406;SDS011;37709;53.480;9.688;2022-09-25T04:03:53;20.23;;;11.20;;
2406;SDS011;37709;53.480;9.688;2022-09-25T04:06:22;21.57;;;11.00;;
2406;SDS011;37709;53.480;9.688;2022-09-25T04:08:51;23.73;;;13.10;;
2406;SDS011;37709;53.480;9.688;2022-09-25T04:11:19;26.47;;;13.60;;
2406;SDS011;37709;53.480;9.688;2022-09-25T04:13:50;27.83;;;12.73;;
2406;SDS011;37709;53.480;9.688;2022-09-25T04:16:19;23.53;;;11.30;;
2406;SDS011;37709;53.480;9.688;2022-09-25T04:18:47;26.47;;;11.93;;
2406;SDS011;37709;53.480;9.688;2022-09-25T04:21:15;27.47;;;12.40;;
2406;SDS011;37709;53.480;9.688;2022-09-25T04:23:42;24.33;;;12.00;;
2406;SDS011;37709;53.480;9.688;2022-09-25T04:26:30;28.50;;;12.73;;
2406;SDS011;37709;53.480;9.688;2022-09-25T04:28:58;24.77;;;11.70;;
2406;SDS011;37709;53.480;9.688;2022-09-25T04:31:29;19.27;;;10.20;;
2406;SDS011;37709;53.480;9.688;2022-09-25T04:33:58;24.03;;;11.77;;
2406;SDS011;37709;53.480;9.688;2022-09-25T04:36:26;23.17;;;11.70;;
2406;SDS011;37709;53.480;9.688;2022-09-25T04:38:54;27.60;;;11.77;;
2406;SDS011;37709;53.480;9.688;2022-09-25T04:41:21;21.30;;;10.13;;
2406;SDS011;37709;53.480;9.688;2022-09-25T04:43:49;21.40;;;11.57;;
2406;SDS011;37709;53.480;9.688;2022-09-25T04:46:16;12.80;;;8.03;;
2406;SDS011;37709;53.480;9.688;2022-09-25T04:48:48;15.23;;;7.80;;
2406;SDS011;37709;53.480;9.688;2022-09-25T04:51:16;17.03;;;8.77;;
2406;SDS011;37709;53.480;9.688;2022-09-25T04:53:43;22.63;;;10.90;;
2406;SDS011;37709;53.480;9.688;2022-09-25T04:56:11;24.93;;;10.87;;
2406;SDS011;37709;53.480;9.688;2022-09-25T04:58:43;15.97;;;9.57;;
2406;SDS011;37709;53.480;9.688;2022-09-25T05:01:12;27.20;;;9.80;;
2406;SDS011;37709;53.480;9.688;2022-09-25T05:03:39;21.60;;;10.93;;
2406;SDS011;37709;53.480;9.688;2022-09-25T05:06:08;31.33;;;12.07;;
2406;SDS011;37709;53.480;9.688;2022-09-25T05:08:35;27.97;;;11.07;;
2406;SDS011;37709;53.480;9.688;2022-09-25T05:11:03;15.57;;;8.60;;
2406;SDS011;37709;53.480;9.688;2022-09-25T05:13:30;22.43;;;10.03;;
2406;SDS011;37709;53.480;9.688;2022-09-25T05:15:58;32.13;;;12.33;;
2406;SDS011;37709;53.480;9.688;2022-09-25T05:18:26;22.93;;;11.30;;
2406;SDS011;37709;53.480;9.688;2022-09-25T05:20:53;20.80;;;9.70;;
2406;SDS011;37709;53.480;9.688;2022-09-25T05:23:21;20.00;;;9.83;;
2406;SDS011;37709;53.480;9.688;2022-09-25T05:25:50;56.17;;;11.60;;
2406;SDS011;37709;53.480;9.688;2022-09-25T05:28:18;21.53;;;9.50;;
2406;SDS011;37709;53.480;9.688;2022-09-25T05:30:46;22.40;;;9.73;;
2406;SDS011;37709;53.480;9.688;2022-09-25T05:33:14;29.33;;;10.80;;
2406;SDS011;37709;53.480;9.688;2022-09-25T05:35:41;20.83;;;9.50;;
2406;SDS011;37709;53.480;9.688;2022-09-25T05:38:08;19.33;;;9.17;;
2406;SDS011;37709;53.480;9.688;2022-09-25T05:40:36;21.07;;;8.77;;
2406;SDS011;37709;53.480;9.688;2022-09-25T05:43:05;14.37;;;8.33;;
2406;SDS011;37709;53.480;9.688;2022-09-25T05:45:32;14.03;;;7.80;;
2406;SDS011;37709;53.480;9.688;2022-09-25T05:48:04;19.07;;;9.27;;
2406;SDS011;37709;53.480;9.688;2022-09-25T05:50:33;17.87;;;9.07;;
2406;SDS011;37709;53.480;9.688;2022-09-25T05:53:02;16.53;;;8.53;;
2406;SDS011;37709;53.480;9.688;2022-09-25T05:55:31;17.80;;;9.37;;
2406;SDS011;37709;53.480;9.688;2022-09-25T05:58:02;18.40;;;9.20;;
2406;SDS011;37709;53.480;9.688;2022-09-25T06:00:31;24.10;;;10.20;;
2406;SDS011;37709;53.480;9.688;2022-09-25T06:02:59;22.93;;;11.20;;
2406;SDS011;37709;53.480;9.688;2022-09-25T06:05:27;29.23;;;11.57;;
2406;SDS011;37709;53.480;9.688;2022-09-25T06:07:55;23.30;;;10.80;;
2406;SDS011;37709;53.480;9.688;2022-09-25T06:10:23;20.30;;;10.13;;
2406;SDS011;37709;53.480;9.688;2022-09-25T06:12:55;33.53;;;13.20;;
2406;SDS011;37709;53.480;9.688;2022-09-25T06:15:28;24.17;;;11.57;;
2406;SDS011;37709;53.480;9.688;2022-09-25T06:18:06;15.37;;;8.30;;
2406;SDS011;37709;53.480;9.688;2022-09-25T06:20:35;22.63;;;10.37;;
2406;SDS011;37709;53.480;9.688;2022-09-25T06:23:02;23.70;;;11.07;;
2406;SDS011;37709;53.480;9.688;2022-09-25T06:25:30;20.73;;;11.30;;
2406;SDS011;37709;53.480;9.688;2022-09-25T06:27:59;27.43;;;12.70;;
2406;SDS011;37709;53.480;9.688;2022-09-25T06:30:28;27.43;;;12.03;;
2406;SDS011;37709;53.480;9.688;2022-09-25T06:33:00;24.33;;;11.57;;
2406;SDS011;37709;53.480;9.688;2022-09-25T06:35:30;35.80;;;14.20;;
2406;SDS011;37709;53.480;9.688;2022-09-25T06:37:57;32.90;;;13.50;;
2406;SDS011;37709;53.480;9.688;2022-09-25T06:40:27;24.03;;;12.77;;
2406;SDS011;37709;53.480;9.688;2022-09-25T06:42:56;20.63;;;11.77;;
2406;SDS011;37709;53.480;9.688;2022-09-25T06:45:25;30.77;;;15.40;;
2406;SDS011;37709;53.480;9.688;2022-09-25T06:48:04;28.97;;;12.30;;
2406;SDS011;37709;53.480;9.688;2022-09-25T06:53:22;23.87;;;13.00;;
2406;SDS011;37709;53.480;9.688;2022-09-25T06:55:50;23.73;;;12.57;;
2406;SDS011;37709;53.480;9.688;2022-09-25T06:58:21;27.70;;;14.00;;
2406;SDS011;37709;53.480;9.688;2022-09-25T07:00:51;29.60;;;13.67;;
2406;SDS011;37709;53.480;9.688;2022-09-25T07:03:21;23.37;;;12.13;;
2406;SDS011;37709;53.480;9.688;2022-09-25T07:06:08;21.90;;;11.97;;
2406;SDS011;37709;53.480;9.688;2022-09-25T07:08:36;25.77;;;12.43;;
2406;SDS011;37709;53.480;9.688;2022-09-25T07:11:05;14.97;;;9.60;;
2406;SDS011;37709;53.480;9.688;2022-09-25T07:13:33;39.27;;;14.53;;
2406;SDS011;37709;53.480;9.688;2022-09-25T07:16:05;27.47;;;13.10;;
2406;SDS011;37709;53.480;9.688;2022-09-25T07:18:36;25.87;;;11.90;;
2406;SDS011;37709;53.480;9.688;2022-09-25T07:21:07;26.97;;;13.20;;
2406;SDS011;37709;53.480;9.688;2022-09-25T07:23:40;20.10;;;11.43;;
2406;SDS011;37709;53.480;9.688;2022-09-25T07:26:09;23.60;;;13.53;;
2406;SDS011;37709;53.480;9.688;2022-09-25T07:28:39;19.67;;;11.83;;
2406;SDS011;37709;53.480;9.688;2022-09-25T07:33:48;23.57;;;12.80;;
2406;SDS011;37709;53.480;9.688;2022-09-25T07:36:16;25.60;;;13.33;;
2406;SDS011;37709;53.480;9.688;2022-09-25T07:38:48;30.00;;;13.50;;
2406;SDS011;37709;53.480;9.688;2022-09-25T07:41:19;18.40;;;12.60;;
2406;SDS011;37709;53.480;9.688;2022-09-25T07:43:52;23.57;;;13.57;;
2406;SDS011;37709;53.480;9.688;2022-09-25T07:46:42;25.47;;;13.63;;
2406;SDS011;37709;53.480;9.688;2022-09-25T07:49:12;30.33;;;15.27;;
2406;SDS011;37709;53.480;9.688;2022-09-25T07:51:40;24.07;;;14.03;;
2406;SDS011;37709;53.480;9.688;2022-09-25T07:54:08;17.63;;;12.87;;
2406;SDS011;37709;53.480;9.688;2022-09-25T07:56:35;20.90;;;13.03;;
2406;SDS011;37709;53.480;9.688;2022-09-25T07:59:04;27.73;;;14.10;;
2406;SDS011;37709;53.480;9.688;2022-09-25T08:01:33;22.57;;;14.53;;
2406;SDS011;37709;53.480;9.688;2022-09-25T08:04:06;24.47;;;13.87;;
2406;SDS011;37709;53.480;9.688;2022-09-25T08:06:33;25.57;;;14.10;;
2406;SDS011;37709;53.480;9.688;2022-09-25T08:09:01;20.53;;;14.90;;
2406;SDS011;37709;53.480;9.688;2022-09-25T08:11:36;25.87;;;15.20;;
2406;SDS011;37709;53.480;9.688;2022-09-25T08:14:03;23.97;;;14.70;;
2406;SDS011;37709;53.480;9.688;2022-09-25T08:16:31;22.00;;;14.50;;
2406;SDS011;37709;53.480;9.688;2022-09-25T08:18:58;23.03;;;16.57;;
2406;SDS011;37709;53.480;9.688;2022-09-25T08:21:26;23.43;;;16.53;;
2406;SDS011;37709;53.480;9.688;2022-09-25T08:23:53;21.03;;;15.00;;
2406;SDS011;37709;53.480;9.688;2022-09-25T08:26:22;25.57;;;14.87;;
2406;SDS011;37709;53.480;9.688;2022-09-25T08:28:49;30.23;;;15.83;;
2406;SDS011;37709;53.480;9.688;2022-09-25T08:31:17;29.07;;;17.13;;
2406;SDS011;37709;53.480;9.688;2022-09-25T08:33:46;19.83;;;14.30;;
2406;SDS011;37709;53.480;9.688;2022-09-25T08:36:15;30.90;;;18.47;;
2406;SDS011;37709;53.480;9.688;2022-09-25T08:38:43;29.37;;;16.93;;
2406;SDS011;37709;53.480;9.688;2022-09-25T08:49:23;33.90;;;18.00;;
2406;SDS011;37709;53.480;9.688;2022-09-25T08:51:56;24.70;;;14.43;;
2406;SDS011;37709;53.480;9.688;2022-09-25T08:54:28;30.10;;;17.93;;
2406;SDS011;37709;53.480;9.688;2022-09-25T08:57:08;24.80;;;14.90;;
2406;SDS011;37709;53.480;9.688;2022-09-25T08:59:42;31.67;;;17.10;;
2406;SDS011;37709;53.480;9.688;2022-09-25T09:02:17;27.40;;;16.67;;
2406;SDS011;37709;53.480;9.688;2022-09-25T09:04:52;43.10;;;19.90;;
2406;SDS011;37709;53.480;9.688;2022-09-25T09:12:45;28.00;;;15.90;;
2406;SDS011;37709;53.480;9.688;2022-09-25T09:15:23;34.30;;;18.77;;
2406;SDS011;37709;53.480;9.688;2022-09-25T09:18:00;25.57;;;16.07;;
2406;SDS011;37709;53.480;9.688;2022-09-25T09:20:37;33.37;;;17.90;;
2406;SDS011;37709;53.480;9.688;2022-09-25T09:23:13;24.30;;;17.47;;
2406;SDS011;37709;53.480;9.688;2022-09-25T09:28:32;29.03;;;16.57;;
2406;SDS011;37709;53.480;9.688;2022-09-25T09:31:24;32.70;;;19.93;;
2406;SDS011;37709;53.480;9.688;2022-09-25T09:37:28;24.37;;;17.10;;
2406;SDS011;37709;53.480;9.688;2022-09-25T09:40:35;17.27;;;13.77;;
2406;SDS011;37709;53.480;9.688;2022-09-25T09:43:20;19.60;;;11.30;;
2406;SDS011;37709;53.480;9.688;2022-09-25T09:45:52;18.60;;;12.60;;
2406;SDS011;37709;53.480;9.688;2022-09-25T09:48:29;19.40;;;11.57;;
2406;SDS011;37709;53.480;9.688;2022-09-25T09:51:17;15.70;;;9.87;;
2406;SDS011;37709;53.480;9.688;2022-09-25T09:53:50;14.90;;;10.50;;
2406;SDS011;37709;53.480;9.688;2022-09-25T09:56:31;13.63;;;9.20;;
2406;SDS011;37709;53.480;9.688;2022-09-25T09:59:02;14.63;;;9.20;;
2406;SDS011;37709;53.480;9.688;2022-09-25T10:01:33;13.43;;;8.60;;
2406;SDS011;37709;53.480;9.688;2022-09-25T10:04:10;13.80;;;9.53;;
2406;SDS011;37709;53.480;9.688;2022-09-25T10:06:43;13.53;;;9.63;;
2406;SDS011;37709;53.480;9.688;2022-09-25T10:09:17;18.80;;;11.43;;
2406;SDS011;37709;53.480;9.688;2022-09-25T10:11:46;22.60;;;12.63;;
2406;SDS011;37709;53.480;9.688;2022-09-25T10:14:31;22.17;;;11.97;;
2406;SDS011;37709;53.480;9.688;2022-09-25T10:17:03;13.80;;;9.87;;
2406;SDS011;37709;53.480;9.688;2022-09-25T10:19:36;16.60;;;10.70;;
2406;SDS011;37709;53.480;9.688;2022-09-25T10:22:19;15.10;;;8.90;;
2406;SDS011;37709;53.480;9.688;2022-09-25T10:24:55;14.07;;;9.27;;
2406;SDS011;37709;53.480;9.688;2022-09-25T10:35:14;20.40;;;12.90;;
2406;SDS011;37709;53.480;9.688;2022-09-25T10:37:46;16.37;;;10.80;;
2406;SDS011;37709;53.480;9.688;2022-09-25T10:40:25;18.83;;;11.07;;
2406;SDS011;37709;53.480;9.688;2022-09-25T10:43:13;18.33;;;11.07;;
2406;SDS011;37709;53.480;9.688;2022-09-25T10:45:43;17.53;;;12.27;;
2406;SDS011;37709;53.480;9.688;2022-09-25T10:48:20;19.83;;;12.00;;
2406;SDS011;37709;53.480;9.688;2022-09-25T10:51:11;17.53;;;11.00;;
2406;SDS011;37709;53.480;9.688;2022-09-25T10:53:45;14.70;;;9.53;;
2406;SDS011;37709;53.480;9.688;2022-09-25T10:56:35;13.37;;;9.53;;
2406;SDS011;37709;53.480;9.688;2022-09-25T11:01:57;16.10;;;11.00;;
2406;SDS011;37709;53.480;9.688;2022-09-25T11:04:28;16.50;;;11.77;;
2406;SDS011;37709;53.480;9.688;2022-09-25T11:06:58;15.20;;;10.77;;
2406;SDS011;37709;53.480;9.688;2022-09-25T11:09:30;12.00;;;10.23;;
2406;SDS011;37709;53.480;9.688;2022-09-25T11:12:06;13.90;;;9.40;;
2406;SDS011;37709;53.480;9.688;2022-09-25T11:14:34;12.67;;;9.10;;
2406;SDS011;37709;53.480;9.688;2022-09-25T11:17:03;15.40;;;9.77;;
2406;SDS011;37709;53.480;9.688;2022-09-25T11:19:36;12.23;;;9.40;;
2406;SDS011;37709;53.480;9.688;2022-09-25T11:22:50;12.50;;;9.20;;
2406;SDS011;37709;53.480;9.688;2022-09-25T11:27:45;10.47;;;6.70;;
2406;SDS011;37709;53.480;9.688;2022-09-25T11:30:20;9.07;;;8.23;;
2406;SDS011;37709;53.480;9.688;2022-09-25T11:47:16;10.60;;;6.37;;
2406;SDS011;37709;53.480;9.688;2022-09-25T11:49:50;7.97;;;5.33;;
2406;SDS011;37709;53.480;9.688;2022-09-25T11:52:27;6.27;;;5.33;;
2406;SDS011;37709;53.480;9.688;2022-09-25T12:12:02;5.60;;;5.10;;
2406;SDS011;37709;53.480;9.688;2022-09-25T12:14:48;6.07;;;5.47;;
2406;SDS011;37709;53.480;9.688;2022-09-25T12:20:18;7.83;;;5.63;;
2406;SDS011;37709;53.480;9.688;2022-09-25T12:22:58;10.57;;;9.77;;
2406;SDS011;37709;53.480;9.688;2022-09-25T12:28:26;6.70;;;5.50;;
2406;SDS011;37709;53.480;9.688;2022-09-25T12:31:16;7.13;;;4.30;;
2406;SDS011;37709;53.480;9.688;2022-09-25T12:36:46;4.67;;;3.10;;
2406;SDS011;37709;53.480;9.688;2022-09-25T12:39:26;6.17;;;3.70;;
2406;SDS011;37709;53.480;9.688;2022-09-25T12:47:46;5.97;;;4.07;;
2406;SDS011;37709;53.480;9.688;2022-09-25T12:50:29;4.73;;;2.73;;
2406;SDS011;37709;53.480;9.688;2022-09-25T12:53:13;4.90;;;2.63;;
2406;SDS011;37709;53.480;9.688;2022-09-25T12:56:07;3.80;;;2.07;;
2406;SDS011;37709;53.480;9.688;2022-09-25T13:03:53;4.73;;;2.70;;
2406;SDS011;37709;53.480;9.688;2022-09-25T13:06:44;4.30;;;2.80;;
2406;SDS011;37709;53.480;9.688;2022-09-25T13:11:58;5.07;;;2.27;;
2406;SDS011;37709;53.480;9.688;2022-09-25T13:14:35;4.57;;;2.20;;
2406;SDS011;37709;53.480;9.688;2022-09-25T13:17:18;2.60;;;1.47;;
2406;SDS011;37709;53.480;9.688;2022-09-25T13:19:46;4.00;;;1.87;;
2406;SDS011;37709;53.480;9.688;2022-09-25T13:22:23;2.60;;;1.57;;
2406;SDS011;37709;53.480;9.688;2022-09-25T13:24:57;2.90;;;1.50;;
2406;SDS011;37709;53.480;9.688;2022-09-25T13:27:37;3.80;;;1.23;;
2406;SDS011;37709;53.480;9.688;2022-09-25T13:30:18;2.73;;;1.90;;
2406;SDS011;37709;53.480;9.688;2022-09-25T13:32:51;3.17;;;1.43;;
2406;SDS011;37709;53.480;9.688;2022-09-25T13:35:21;2.00;;;1.30;;
2406;SDS011;37709;53.480;9.688;2022-09-25T13:37:50;8.00;;;2.07;;
2406;SDS011;37709;53.480;9.688;2022-09-25T13:41:08;2.13;;;1.20;;
2406;SDS011;37709;53.480;9.688;2022-09-25T13:43:39;3.83;;;1.10;;
2406;SDS011;37709;53.480;9.688;2022-09-25T13:48:41;2.53;;;1.30;;
2406;SDS011;37709;53.480;9.688;2022-09-25T13:53:55;3.73;;;1.87;;
2406;SDS011;37709;53.480;9.688;2022-09-25T14:01:37;2.42;;;1.05;;
2406;SDS011;37709;53.480;9.688;2022-09-25T14:04:09;3.37;;;1.50;;
2406;SDS011;37709;53.480;9.688;2022-09-25T14:06:40;3.37;;;1.10;;
2406;SDS011;37709;53.480;9.688;2022-09-25T14:09:11;3.50;;;1.20;;
2406;SDS011;37709;53.480;9.688;2022-09-25T14:11:59;3.57;;;1.40;;
2406;SDS011;37709;53.480;9.688;2022-09-25T14:14:33;1.70;;;0.87;;
2406;SDS011;37709;53.480;9.688;2022-09-25T14:17:10;2.57;;;0.77;;
2406;SDS011;37709;53.480;9.688;2022-09-25T14:19:43;2.37;;;0.90;;
2406;SDS011;37709;53.480;9.688;2022-09-25T14:22:16;3.13;;;0.70;;
2406;SDS011;37709;53.480;9.688;2022-09-25T14:24:58;3.90;;;0.77;;
2406;SDS011;37709;53.480;9.688;2022-09-25T14:27:26;2.90;;;0.83;;
2406;SDS011;37709;53.480;9.688;2022-09-25T14:30:09;2.13;;;0.70;;
2406;SDS011;37709;53.480;9.688;2022-09-25T14:35:34;1.10;;;0.60;;
2406;SDS011;37709;53.480;9.688;2022-09-25T14:38:09;2.60;;;0.70;;
2406;SDS011;37709;53.480;9.688;2022-09-25T14:46:30;3.20;;;1.10;;
2406;SDS011;37709;53.480;9.688;2022-09-25T14:49:13;3.70;;;0.90;;
2406;SDS011;37709;53.480;9.688;2022-09-25T14:52:00;2.13;;;1.00;;
2406;SDS011;37709;53.480;9.688;2022-09-25T14:54:32;3.27;;;0.80;;
2406;SDS011;37709;53.480;9.688;2022-09-25T14:57:03;2.40;;;0.83;;
2406;SDS011;37709;53.480;9.688;2022-09-25T14:59:38;4.00;;;1.10;;
2406;SDS011;37709;53.480;9.688;2022-09-25T15:02:20;3.93;;;0.83;;
2406;SDS011;37709;53.480;9.688;2022-09-25T15:07:49;4.13;;;1.10;;
2406;SDS011;37709;53.480;9.688;2022-09-25T15:10:24;2.93;;;1.10;;
2406;SDS011;37709;53.480;9.688;2022-09-25T15:15:32;3.10;;;1.20;;
2406;SDS011;37709;53.480;9.688;2022-09-25T15:18:01;2.00;;;0.80;;
2406;SDS011;37709;53.480;9.688;2022-09-25T15:20:31;4.80;;;0.80;;
2406;SDS011;37709;53.480;9.688;2022-09-25T15:23:07;3.33;;;1.40;;
2406;SDS011;37709;53.480;9.688;2022-09-25T15:25:44;2.87;;;1.17;;
2406;SDS011;37709;53.480;9.688;2022-09-25T15:28:16;2.90;;;0.90;;
2406;SDS011;37709;53.480;9.688;2022-09-25T15:30:52;3.77;;;1.20;;
2406;SDS011;37709;53.480;9.688;2022-09-25T15:33:28;2.40;;;0.90;;
2406;SDS011;37709;53.480;9.688;2022-09-25T15:35:58;1.50;;;0.80;;
2406;SDS011;37709;53.480;9.688;2022-09-25T15:38:41;3.13;;;1.00;;
2406;SDS011;37709;53.480;9.688;2022-09-25T15:41:13;2.33;;;1.00;;
2406;SDS011;37709;53.480;9.688;2022-09-25T15:43:43;3.57;;;1.23;;
2406;SDS011;37709;53.480;9.688;2022-09-25T15:46:33;3.67;;;1.03;;
2406;SDS011;37709;53.480;9.688;2022-09-25T15:49:07;4.87;;;1.07;;
2406;SDS011;37709;53.480;9.688;2022-09-25T15:51:39;5.00;;;0.80;;
2406;SDS011;37709;53.480;9.688;2022-09-25T15:54:29;2.83;;;1.00;;
2406;SDS011;37709;53.480;9.688;2022-09-25T15:56:57;2.90;;;0.93;;
2406;SDS011;37709;53.480;9.688;2022-09-25T16:02:24;1.63;;;0.80;;
2406;SDS011;37709;53.480;9.688;2022-09-25T16:05:18;3.73;;;0.70;;
2406;SDS011;37709;53.480;9.688;2022-09-25T16:07:53;2.60;;;0.90;;
2406;SDS011;37709;53.480;9.688;2022-09-25T16:13:43;2.20;;;0.80;;
2406;SDS011;37709;53.480;9.688;2022-09-25T16:16:26;1.93;;;1.07;;
2406;SDS011;37709;53.480;9.688;2022-09-25T16:18:57;1.23;;;1.00;;
2406;SDS011;37709;53.480;9.688;2022-09-25T16:23:56;4.17;;;0.90;;
2406;SDS011;37709;53.480;9.688;2022-09-25T16:26:35;1.20;;;0.80;;
2406;SDS011;37709;53.480;9.688;2022-09-25T16:31:39;2.77;;;1.00;;
2406;SDS011;37709;53.480;9.688;2022-09-25T16:34:25;1.20;;;0.80;;
2406;SDS011;37709;53.480;9.688;2022-09-25T16:37:05;4.63;;;1.00;;
2406;SDS011;37709;53.480;9.688;2022-09-25T16:39:44;4.23;;;1.00;;
2406;SDS011;37709;53.480;9.688;2022-09-25T16:42:28;2.73;;;0.90;;
2406;SDS011;37709;53.480;9.688;2022-09-25T16:45:20;2.70;;;1.20;;
2406;SDS011;37709;53.480;9.688;2022-09-25T16:47:53;1.60;;;1.20;;
2406;SDS011;37709;53.480;9.688;2022-09-25T16:50:25;3.28;;;1.17;;
2406;SDS011;37709;53.480;9.688;2022-09-25T16:52:54;3.70;;;1.40;;
2406;SDS011;37709;53.480;9.688;2022-09-25T16:55:24;3.27;;;1.13;;
2406;SDS011;37709;53.480;9.688;2022-09-25T16:57:54;1.90;;;1.07;;
2406;SDS011;37709;53.480;9.688;2022-09-25T17:00:27;4.63;;;1.50;;
2406;SDS011;37709;53.480;9.688;2022-09-25T17:02:55;4.87;;;1.60;;
2406;SDS011;37709;53.480;9.688;2022-09-25T17:05:24;6.30;;;1.67;;
2406;SDS011;37709;53.480;9.688;2022-09-25T17:07:54;3.80;;;1.30;;
2406;SDS011;37709;53.480;9.688;2022-09-25T17:10:24;2.50;;;1.10;;
2406;SDS011;37709;53.480;9.688;2022-09-25T17:12:55;4.53;;;1.20;;
2406;SDS011;37709;53.480;9.688;2022-09-25T17:15:33;2.93;;;1.50;;
2406;SDS011;37709;53.480;9.688;2022-09-25T17:18:02;5.33;;;1.30;;
2406;SDS011;37709;53.480;9.688;2022-09-25T17:20:37;2.83;;;0.87;;
2406;SDS011;37709;53.480;9.688;2022-09-25T17:23:05;1.83;;;1.03;;
2406;SDS011;37709;53.480;9.688;2022-09-25T17:25:36;2.93;;;1.27;;
2406;SDS011;37709;53.480;9.688;2022-09-25T17:28:12;3.07;;;1.10;;
2406;SDS011;37709;53.480;9.688;2022-09-25T17:30:41;3.50;;;1.00;;
2406;SDS011;37709;53.480;9.688;2022-09-25T17:33:14;4.37;;;1.87;;
2406;SDS011;37709;53.480;9.688;2022-09-25T17:38:10;5.23;;;1.43;;
2406;SDS011;37709;53.480;9.688;2022-09-25T17:40:42;6.60;;;1.37;;
2406;SDS011;37709;53.480;9.688;2022-09-25T17:43:12;3.70;;;1.60;;
2406;SDS011;37709;53.480;9.688;2022-09-25T17:45:45;4.43;;;1.40;;
2406;SDS011;37709;53.480;9.688;2022-09-25T17:48:20;3.47;;;1.87;;
2406;SDS011;37709;53.480;9.688;2022-09-25T17:50:54;7.43;;;2.80;;
2406;SDS011;37709;53.480;9.688;2022-09-25T17:53:23;11.23;;;4.70;;